createdAt,value
2017-09-01T16:00:10.208Z,94186.81
2017-09-01T16:02:37.791Z,94184.96
2017-09-01T16:05:05.330Z,94188.50
2017-09-01T16:07:32.867Z,94191.08
2017-09-01T16:10:00.491Z,94185.97
2017-09-01T16:12:28.092Z,94193.67
2017-09-01T16:14:55.666Z,94194.36
2017-09-01T16:17:23.302Z,94190.80
2017-09-01T16:19:50.880Z,94196.38
2017-09-01T16:22:18.407Z,94197.87
2017-09-01T16:24:46.039Z,94197.42
2017-09-01T16:27:13.622Z,94196.58
2017-09-01T16:29:41.198Z,94202.69
2017-09-01T16:32:08.768Z,94204.77
2017-09-01T16:34:36.315Z,94205.94
2017-09-01T16:37:03.904Z,94204.56
2017-09-01T16:39:31.537Z,94205.02
2017-09-01T16:41:59.140Z,94209.42
2017-09-01T16:44:26.699Z,94206.64
2017-09-01T16:46:54.457Z,94206.27
2017-09-01T16:49:22.005Z,94215.89
2017-09-01T16:51:49.660Z,94210.50
2017-09-01T16:54:17.274Z,94214.30
2017-09-01T16:56:44.875Z,94211.77
2017-09-01T16:59:12.457Z,94204.92
2017-09-01T17:01:40.104Z,94207.61
2017-09-01T17:04:07.716Z,94211.61
2017-09-01T17:06:35.252Z,94216.97
2017-09-01T17:09:02.899Z,94218.39
2017-09-01T17:11:30.474Z,94220.91
2017-09-01T17:13:58.095Z,94220.06
2017-09-01T17:16:25.734Z,94225.38
2017-09-01T17:18:53.382Z,94225.25
2017-09-01T17:21:20.984Z,94230.75
2017-09-01T17:23:49.256Z,94238.95
2017-09-01T17:26:16.859Z,94236.15
2017-09-01T17:28:44.425Z,94238.53
2017-09-01T17:31:12.081Z,94242.89
2017-09-01T17:33:39.688Z,94247.41
2017-09-01T17:36:07.236Z,94243.80
2017-09-01T17:38:34.858Z,94246.50
2017-09-01T17:41:02.482Z,94253.17
2017-09-01T17:43:30.064Z,94251.66
2017-09-01T17:45:57.690Z,94255.96
2017-09-01T17:48:25.397Z,94260.34
